Fulda, Minnesota
Current Conditions -  °F | °C
As of 12:54 PM on Thursday 23 Oct 2014 (Local Time) from KDVP Reporting Station
Clear Clear  
Wind Chill: 64°   Ceiling: Unl
Heat Index: 64°   Visibility: 10mi
Dew Point: 44°   Wind: 9mph
Humidity: 48%   Direction: 250°WSW
Pressure: 30.02"   Gusts: NA
Location:  43.87°N, 95.6°W
Report Text: KDVP 231754Z AUTO 25008KT 10SM CLR 18/07 A3002 RMK AO2 T01760066 10176 20068
Loading
Personal Weather Stations






























Interactive Weather Map
Tropical Storm Tracking
New forecast layout! Learn more

10-Day Weather Forecast

Advertisements
Track Severe Weather on mobile